createdAt,value
2019-02-14T00:01:01.831Z,12.58
2019-02-14T00:03:30.020Z,13.15
2019-02-14T00:06:10.453Z,12.25
2019-02-14T00:08:58.032Z,13.38
2019-02-14T00:11:38.754Z,15.75
2019-02-14T00:14:26.126Z,11.97
2019-02-14T00:16:54.005Z,12.82
2019-02-14T00:19:21.890Z,11.25
2019-02-14T00:22:03.722Z,10.53
2019-02-14T00:24:31.717Z,11.55
2019-02-14T00:26:59.621Z,11.35
2019-02-14T00:29:27.491Z,14.07
2019-02-14T00:31:55.484Z,12.73
2019-02-14T00:34:42.861Z,13.00
2019-02-14T00:37:23.581Z,11.50
2019-02-14T00:40:04.864Z,10.93
2019-02-14T00:42:52.285Z,11.75
2019-02-14T00:45:34.713Z,11.83
2019-02-14T00:48:22.329Z,11.18
2019-02-14T00:51:00.921Z,10.38
2019-02-14T00:53:48.586Z,11.33
2019-02-14T00:56:29.213Z,11.53
2019-02-14T00:59:16.925Z,10.23
2019-02-14T01:01:57.479Z,11.05
2019-02-14T01:05:06.646Z,10.85
2019-02-14T01:07:46.702Z,9.95
2019-02-14T01:10:34.255Z,11.55
2019-02-14T01:13:13.170Z,12.00
2019-02-14T01:16:00.579Z,11.30
2019-02-14T01:18:41.249Z,12.40
2019-02-14T01:21:21.530Z,12.28
2019-02-14T01:24:02.839Z,11.83
2019-02-14T01:26:43.577Z,11.33
2019-02-14T01:29:11.493Z,11.43
2019-02-14T01:31:58.876Z,11.63
2019-02-14T01:34:26.824Z,10.50
2019-02-14T01:40:15.021Z,12.70
2019-02-14T01:45:49.917Z,12.45
2019-02-14T01:48:37.289Z,12.15
2019-02-14T01:51:17.905Z,11.80
2019-02-14T01:54:05.462Z,12.78
2019-02-14T01:56:46.448Z,12.20
2019-02-14T01:59:28.418Z,11.88
2019-02-14T02:02:15.838Z,12.63
2019-02-14T02:04:56.329Z,11.60
2019-02-14T02:07:43.748Z,11.55
2019-02-14T02:10:25.612Z,11.20
2019-02-14T02:12:53.873Z,9.98
2019-02-14T02:15:21.777Z,11.03
2019-02-14T02:18:09.133Z,12.40
2019-02-14T02:20:50.010Z,11.50
2019-02-14T02:23:31.122Z,12.33
2019-02-14T02:26:18.483Z,10.68
2019-02-14T02:28:46.421Z,11.18
2019-02-14T02:31:15.298Z,10.38
2019-02-14T02:34:02.686Z,10.48
2019-02-14T02:36:50.200Z,11.05
2019-02-14T02:39:30.594Z,11.33
2019-02-14T02:42:18.151Z,11.43
2019-02-14T02:44:59.316Z,10.53
2019-02-14T02:47:46.679Z,10.60
2019-02-14T02:50:27.347Z,10.20
2019-02-14T02:52:55.194Z,10.43
2019-02-14T02:55:44.360Z,10.65
2019-02-14T02:58:12.282Z,10.13
2019-02-14T03:00:40.183Z,10.55
2019-02-14T03:03:08.112Z,10.98
2019-02-14T03:05:51.029Z,9.78
2019-02-14T03:08:18.856Z,9.88
2019-02-14T03:10:46.717Z,10.20
2019-02-14T03:13:34.341Z,11.22
2019-02-14T03:16:15.405Z,10.10
2019-02-14T03:19:02.784Z,9.90
2019-02-14T03:21:43.632Z,10.20
2019-02-14T03:24:31.043Z,9.83
2019-02-14T03:26:58.957Z,9.23
2019-02-14T03:29:46.299Z,10.30
2019-02-14T03:32:26.780Z,10.55
2019-02-14T03:35:15.173Z,10.50
2019-02-14T03:37:55.199Z,9.83
2019-02-14T03:40:43.214Z,10.10
2019-02-14T03:43:23.448Z,10.15
2019-02-14T03:46:10.786Z,10.85
2019-02-14T03:48:38.732Z,9.80
2019-02-14T03:51:26.123Z,10.30
2019-02-14T03:54:10.362Z,9.58
2019-02-14T03:56:38.295Z,11.73
2019-02-14T03:59:18.421Z,9.98
2019-02-14T04:02:05.795Z,9.65
2019-02-14T04:04:47.924Z,9.80
2019-02-14T04:07:15.767Z,9.80
2019-02-14T04:09:43.632Z,9.40
2019-02-14T04:12:25.605Z,9.30
2019-02-14T04:14:53.473Z,10.25
2019-02-14T04:17:21.365Z,10.32
2019-02-14T04:20:11.056Z,10.60
2019-02-14T04:22:51.969Z,10.40
2019-02-14T04:25:39.349Z,9.63
2019-02-14T04:28:20.067Z,9.75
2019-02-14T04:31:00.149Z,10.48
2019-02-14T04:33:48.445Z,9.95
2019-02-14T04:36:36.263Z,9.75
2019-02-14T04:39:16.760Z,10.45
2019-02-14T04:42:04.161Z,9.28
2019-02-14T04:44:45.056Z,9.25
2019-02-14T04:47:25.768Z,9.98
2019-02-14T04:50:14.895Z,10.48
2019-02-14T04:52:54.929Z,9.60
2019-02-14T04:55:42.288Z,10.40
2019-02-14T04:58:22.845Z,9.95
2019-02-14T05:01:10.481Z,10.82
2019-02-14T05:03:51.451Z,9.20
2019-02-14T05:06:34.473Z,9.78
2019-02-14T05:09:22.045Z,10.18
2019-02-14T05:12:02.787Z,10.38
2019-02-14T05:14:50.665Z,10.60
2019-02-14T05:17:33.782Z,10.72
2019-02-14T05:20:16.578Z,10.30
2019-02-14T05:23:03.927Z,9.55
2019-02-14T05:25:44.914Z,10.48
2019-02-14T05:28:32.460Z,10.98
2019-02-14T05:31:13.239Z,10.30
2019-02-14T05:34:00.868Z,10.18
2019-02-14T05:36:41.999Z,11.15
2019-02-14T05:39:30.358Z,11.30
2019-02-14T05:42:11.606Z,10.60
2019-02-14T05:45:01.842Z,9.53
2019-02-14T05:47:42.285Z,9.30
2019-02-14T05:50:30.066Z,10.08
2019-02-14T05:53:10.438Z,9.00
2019-02-14T05:55:57.311Z,9.08
2019-02-14T05:58:37.772Z,9.23
2019-02-14T06:01:25.227Z,9.45
2019-02-14T06:04:07.869Z,10.23
2019-02-14T06:07:00.921Z,10.25
2019-02-14T06:09:57.922Z,8.78
2019-02-14T06:12:46.971Z,9.55
2019-02-14T06:15:32.926Z,8.48
2019-02-14T06:18:20.984Z,9.53
2019-02-14T06:21:01.740Z,11.48
2019-02-14T06:23:49.498Z,11.28
2019-02-14T06:26:30.278Z,10.50
2019-02-14T06:29:18.981Z,10.68
2019-02-14T06:32:05.860Z,10.72
2019-02-14T06:34:46.178Z,11.78
2019-02-14T06:37:33.530Z,11.45
2019-02-14T06:40:01.419Z,11.63
2019-02-14T06:42:29.356Z,10.72
2019-02-14T06:45:17.068Z,10.03
2019-02-14T06:47:44.975Z,12.18
2019-02-14T06:50:13.280Z,13.53
2019-02-14T06:52:41.187Z,10.65
2019-02-14T06:55:28.847Z,13.00
2019-02-14T06:58:09.591Z,11.65
2019-02-14T07:00:57.073Z,11.63
2019-02-14T07:03:37.823Z,11.20
2019-02-14T07:06:25.540Z,10.10
2019-02-14T07:09:06.193Z,12.45
2019-02-14T07:11:53.974Z,12.03
2019-02-14T07:14:37.207Z,11.68
2019-02-14T07:17:24.706Z,11.40
2019-02-14T07:20:06.439Z,11.35
2019-02-14T07:22:55.099Z,11.28
2019-02-14T07:25:35.376Z,12.13
2019-02-14T07:28:15.932Z,13.20
2019-02-14T07:31:03.447Z,12.75
2019-02-14T07:33:45.165Z,12.37
2019-02-14T07:36:32.738Z,11.73
2019-02-14T07:39:13.082Z,11.48
2019-02-14T07:42:02.874Z,13.45
2019-02-14T07:44:44.271Z,14.30
2019-02-14T07:47:31.677Z,12.45
2019-02-14T07:50:32.399Z,12.28
2019-02-14T07:53:19.732Z,12.40
2019-02-14T07:56:00.156Z,14.18
2019-02-14T07:58:41.009Z,14.50
2019-02-14T08:01:29.074Z,13.83
2019-02-14T08:04:17.018Z,12.63
2019-02-14T08:06:45.457Z,13.13
2019-02-14T08:09:13.321Z,13.62
2019-02-14T08:11:41.285Z,14.33
2019-02-14T08:14:22.819Z,12.85
2019-02-14T08:16:50.686Z,11.50
2019-02-14T08:19:18.539Z,12.23
2019-02-14T08:22:05.917Z,11.43
2019-02-14T08:24:46.221Z,10.32
2019-02-14T08:27:33.574Z,11.10
2019-02-14T08:30:14.336Z,10.98
2019-02-14T08:33:01.877Z,11.00
2019-02-14T08:35:42.049Z,11.00
2019-02-14T08:38:30.554Z,10.65
2019-02-14T08:40:58.481Z,10.58
2019-02-14T08:43:46.396Z,10.60
2019-02-14T08:46:26.895Z,12.93
2019-02-14T08:49:08.138Z,11.70
2019-02-14T08:51:55.497Z,11.95
2019-02-14T08:54:36.096Z,12.13
2019-02-14T08:57:23.482Z,11.93
2019-02-14T09:00:07.164Z,12.28
2019-02-14T09:02:54.946Z,11.57
2019-02-14T09:05:35.254Z,15.00
2019-02-14T09:08:03.173Z,16.15
2019-02-14T09:10:44.870Z,15.48
2019-02-14T09:13:33.333Z,15.68
2019-02-14T09:16:18.269Z,16.85
2019-02-14T09:18:46.247Z,15.70
2019-02-14T09:21:33.913Z,14.20
2019-02-14T09:24:21.279Z,14.75
2019-02-14T09:27:02.182Z,12.93
2019-02-14T09:29:49.723Z,13.13
2019-02-14T09:32:30.394Z,12.35
2019-02-14T09:35:19.710Z,13.00
2019-02-14T09:38:03.330Z,11.48
2019-02-14T09:40:43.623Z,12.20
2019-02-14T09:43:31.465Z,11.80
2019-02-14T09:46:12.553Z,11.50
2019-02-14T09:49:00.312Z,11.63
2019-02-14T09:51:41.568Z,10.65
2019-02-14T09:54:29.222Z,12.80
2019-02-14T09:57:13.269Z,14.47
2019-02-14T09:59:53.726Z,12.43
2019-02-14T10:02:41.078Z,11.63
2019-02-14T10:05:21.734Z,11.65
2019-02-14T10:08:12.965Z,14.78
2019-02-14T10:11:11.816Z,12.53
2019-02-14T10:13:59.369Z,12.10
2019-02-14T10:16:40.884Z,12.33
2019-02-14T10:19:22.324Z,13.22
2019-02-14T10:22:03.385Z,12.98
2019-02-14T10:24:52.566Z,12.33
2019-02-14T10:27:21.362Z,13.60
2019-02-14T10:30:03.569Z,12.10
2019-02-14T10:32:32.427Z,12.95
2019-02-14T10:35:00.355Z,12.58
2019-02-14T10:37:48.323Z,11.63
2019-02-14T10:40:29.506Z,12.30
2019-02-14T10:43:17.469Z,12.30
2019-02-14T10:45:58.665Z,12.30
2019-02-14T10:48:47.324Z,13.98
2019-02-14T10:51:28.171Z,13.10
2019-02-14T10:54:15.603Z,12.30
2019-02-14T10:56:55.882Z,12.70
2019-02-14T10:59:43.559Z,11.60
2019-02-14T11:02:24.363Z,12.82
2019-02-14T11:05:13.222Z,12.78
2019-02-14T11:07:53.468Z,12.68
2019-02-14T11:10:33.519Z,12.33
2019-02-14T11:13:15.839Z,12.88
2019-02-14T11:15:56.733Z,12.37
2019-02-14T11:18:44.722Z,12.93
2019-02-14T11:21:37.583Z,11.80
2019-02-14T11:24:25.274Z,12.37
2019-02-14T11:27:07.465Z,10.70
2019-02-14T11:29:54.875Z,10.68
2019-02-14T11:32:36.742Z,10.50
2019-02-14T11:35:24.125Z,12.05
2019-02-14T11:37:52.292Z,10.08
2019-02-14T11:40:20.501Z,9.95
2019-02-14T11:42:48.436Z,11.00
2019-02-14T11:45:35.913Z,10.50
2019-02-14T11:48:17.564Z,11.25
2019-02-14T11:51:05.029Z,10.93
2019-02-14T11:53:45.940Z,11.08
2019-02-14T11:56:27.662Z,11.30
2019-02-14T11:59:07.738Z,11.88
2019-02-14T12:01:55.182Z,11.95
2019-02-14T12:04:38.411Z,12.00
2019-02-14T12:07:18.993Z,13.00
2019-02-14T12:10:13.169Z,13.48
2019-02-14T12:12:54.476Z,13.98
2019-02-14T12:15:35.434Z,11.80
2019-02-14T12:18:03.393Z,12.63
2019-02-14T12:20:48.014Z,11.75
2019-02-14T12:23:17.196Z,11.55
2019-02-14T12:25:57.308Z,11.37
2019-02-14T12:28:44.876Z,10.65
2019-02-14T12:31:32.159Z,11.10
2019-02-14T12:34:20.789Z,12.07
2019-02-14T12:36:48.767Z,12.00
2019-02-14T12:39:16.623Z,10.70
2019-02-14T12:41:44.589Z,11.07
2019-02-14T12:44:33.051Z,10.93
2019-02-14T12:47:14.996Z,11.03
2019-02-14T12:50:04.016Z,11.37
2019-02-14T12:52:44.885Z,12.07
2019-02-14T12:55:25.155Z,12.40
2019-02-14T12:57:54.254Z,12.93
2019-02-14T13:00:22.241Z,13.10
2019-02-14T13:03:04.180Z,13.93
2019-02-14T13:05:51.699Z,14.10
2019-02-14T13:08:32.367Z,13.90
2019-02-14T13:11:13.491Z,14.70
2019-02-14T13:14:01.131Z,15.40
2019-02-14T13:16:48.148Z,16.43
2019-02-14T13:19:29.663Z,15.37
2019-02-14T13:21:57.928Z,16.47
2019-02-14T13:24:25.921Z,16.13
2019-02-14T13:26:55.315Z,15.50
2019-02-14T13:29:23.439Z,16.10
2019-02-14T13:31:51.422Z,14.40
2019-02-14T13:34:19.293Z,15.13
2019-02-14T13:36:47.299Z,15.80
2019-02-14T13:39:15.266Z,14.75
2019-02-14T13:41:43.246Z,18.13
2019-02-14T13:44:25.180Z,16.30
2019-02-14T13:46:53.200Z,17.27
2019-02-14T13:49:34.849Z,17.60
2019-02-14T13:52:02.964Z,15.53
2019-02-14T13:54:30.897Z,15.17
2019-02-14T13:56:59.015Z,16.03
2019-02-14T13:59:26.967Z,16.03
2019-02-14T14:01:54.927Z,16.63
2019-02-14T14:04:25.073Z,16.10
2019-02-14T14:06:53.137Z,17.97
2019-02-14T14:09:21.077Z,16.80
2019-02-14T14:11:49.909Z,15.50
2019-02-14T14:14:37.655Z,17.33
2019-02-14T14:17:05.771Z,15.10
2019-02-14T14:19:54.151Z,15.40
2019-02-14T14:22:35.286Z,16.13
2019-02-14T14:25:03.836Z,15.03
2019-02-14T14:27:45.622Z,16.20
2019-02-14T14:30:33.374Z,16.00
2019-02-14T14:33:13.869Z,15.03
2019-02-14T14:36:01.868Z,13.87
2019-02-14T14:38:29.903Z,15.93
2019-02-14T14:41:17.614Z,13.90
2019-02-14T14:44:20.418Z,15.23
2019-02-14T14:47:05.683Z,16.30
2019-02-14T14:49:53.059Z,15.13
2019-02-14T14:52:31.893Z,15.17
2019-02-14T14:55:19.288Z,14.40
2019-02-14T14:58:00.540Z,16.05
2019-02-14T15:00:49.093Z,16.27
2019-02-14T15:03:29.692Z,16.90
2019-02-14T15:06:17.294Z,15.33
2019-02-14T15:08:58.047Z,15.17
2019-02-14T15:11:46.093Z,14.30
2019-02-14T15:14:27.289Z,12.87
2019-02-14T15:17:09.095Z,12.73
2019-02-14T15:19:56.716Z,13.60
2019-02-14T15:22:37.472Z,14.53
2019-02-14T15:25:08.357Z,14.50
2019-02-14T15:27:48.667Z,15.00
2019-02-14T15:30:17.854Z,14.50
2019-02-14T15:32:59.682Z,15.17
2019-02-14T15:35:47.149Z,14.20
2019-02-14T15:38:27.842Z,12.00
2019-02-14T15:41:15.384Z,13.05
2019-02-14T15:43:56.124Z,11.77
2019-02-14T15:46:43.599Z,12.67
2019-02-14T15:49:25.416Z,11.00
2019-02-14T15:52:13.295Z,11.70
2019-02-14T15:54:41.236Z,11.30
2019-02-14T15:57:09.474Z,11.60
2019-02-14T15:59:56.901Z,11.80
2019-02-14T16:02:38.058Z,12.40
2019-02-14T16:05:06.316Z,11.70
2019-02-14T16:07:47.602Z,10.90
2019-02-14T16:10:32.824Z,11.90
2019-02-14T16:13:00.960Z,11.70
2019-02-14T16:15:30.867Z,13.00
2019-02-14T16:18:18.108Z,11.17
2019-02-14T16:21:07.425Z,10.90
2019-02-14T16:23:55.430Z,11.33
2019-02-14T16:26:24.313Z,11.17
2019-02-14T16:29:04.494Z,10.70
2019-02-14T16:31:52.025Z,10.40
2019-02-14T16:34:32.948Z,11.55
2019-02-14T16:37:20.569Z,12.33
2019-02-14T16:40:00.763Z,12.43
2019-02-14T16:42:48.222Z,10.72
2019-02-14T16:45:29.302Z,10.53
2019-02-14T16:48:10.130Z,10.98
2019-02-14T16:50:57.639Z,10.35
2019-02-14T16:53:38.463Z,9.38
2019-02-14T16:56:26.993Z,10.23
2019-02-14T16:59:07.737Z,9.88
2019-02-14T17:01:56.216Z,9.85
2019-02-14T17:04:37.880Z,11.70
2019-02-14T17:07:06.157Z,10.23
2019-02-14T17:09:51.936Z,11.12
2019-02-14T17:12:39.607Z,10.15
2019-02-14T17:15:20.488Z,11.50
2019-02-14T17:17:49.211Z,13.03
2019-02-14T17:20:31.384Z,13.53
2019-02-14T17:23:19.111Z,11.40
2019-02-14T17:25:47.108Z,13.80
2019-02-14T17:28:15.281Z,14.10
2019-02-14T17:31:02.835Z,13.38
2019-02-14T17:33:43.201Z,15.93
2019-02-14T17:36:30.729Z,11.97
2019-02-14T17:39:15.483Z,15.48
2019-02-14T17:41:43.821Z,17.17
2019-02-14T17:44:12.870Z,16.12
2019-02-14T17:46:54.644Z,15.13
2019-02-14T17:49:22.629Z,16.32
2019-02-14T17:51:50.654Z,14.40
2019-02-14T17:54:18.919Z,11.83
2019-02-14T17:56:59.014Z,14.33
2019-02-14T17:59:46.553Z,15.00
2019-02-14T18:02:28.716Z,16.10
2019-02-14T18:05:16.241Z,16.23
2019-02-14T18:07:58.274Z,16.37
2019-02-14T18:10:54.698Z,17.87
2019-02-14T18:13:49.801Z,16.35
2019-02-14T18:16:37.237Z,18.30
2019-02-14T18:19:18.389Z,19.27
2019-02-14T18:22:05.962Z,19.32
2019-02-14T18:24:46.180Z,19.25
2019-02-14T18:27:33.744Z,18.75
2019-02-14T18:30:14.362Z,20.55
2019-02-14T18:32:54.514Z,18.92
2019-02-14T18:35:42.249Z,18.95
2019-02-14T18:38:22.829Z,21.17
2019-02-14T18:41:10.311Z,19.02
2019-02-14T18:43:51.406Z,19.48
2019-02-14T18:46:32.432Z,20.08
2019-02-14T18:49:19.958Z,20.45
2019-02-14T18:51:48.006Z,19.25
2019-02-14T18:54:35.586Z,19.65
2019-02-14T18:57:16.681Z,19.48
2019-02-14T19:03:15.302Z,24.63
2019-02-14T19:06:03.173Z,22.20
2019-02-14T19:08:44.226Z,20.75
2019-02-14T19:11:15.291Z,23.22
2019-02-14T19:14:19.053Z,22.73
2019-02-14T19:17:06.573Z,22.52
2019-02-14T19:19:47.130Z,22.77
2019-02-14T19:22:34.802Z,21.93
2019-02-14T19:25:15.037Z,21.80
2019-02-14T19:28:02.847Z,21.62
2019-02-14T19:30:43.420Z,20.80
2019-02-14T19:33:11.657Z,20.72
2019-02-14T19:35:39.731Z,21.50
2019-02-14T19:38:20.055Z,20.60
2019-02-14T19:41:07.596Z,19.52
2019-02-14T19:43:51.935Z,19.12
2019-02-14T19:46:33.094Z,19.25
2019-02-14T19:49:20.813Z,18.98
2019-02-14T19:51:48.991Z,20.97
2019-02-14T19:54:17.210Z,22.10
2019-02-14T19:56:45.321Z,18.65
2019-02-14T19:59:13.431Z,21.35
2019-02-14T20:01:41.645Z,21.25
2019-02-14T20:04:09.929Z,27.27
2019-02-14T20:06:38.327Z,25.02
2019-02-14T20:12:10.134Z,22.60
2019-02-14T20:14:38.452Z,24.23
2019-02-14T20:17:06.883Z,24.60
2019-02-14T20:19:35.170Z,23.65
2019-02-14T20:22:03.305Z,29.00
2019-02-14T20:24:43.677Z,23.50
2019-02-14T20:27:31.591Z,22.62
2019-02-14T20:30:11.910Z,23.50
2019-02-14T20:33:04.958Z,23.27
2019-02-14T20:35:42.933Z,24.45
2019-02-14T20:38:30.756Z,22.50
2019-02-14T20:41:13.232Z,21.33
2019-02-14T20:43:41.524Z,23.80
2019-02-14T20:46:24.387Z,20.25
2019-02-14T20:49:12.329Z,20.80
2019-02-14T20:51:54.824Z,19.65
2019-02-14T20:54:43.163Z,22.07
2019-02-14T20:57:23.723Z,21.60
2019-02-14T20:59:51.979Z,20.40
2019-02-14T21:02:33.441Z,21.33
2019-02-14T21:05:21.152Z,20.40
2019-02-14T21:07:49.404Z,19.90
2019-02-14T21:10:17.828Z,20.25
2019-02-14T21:12:46.088Z,20.25
2019-02-14T21:15:33.669Z,17.60
2019-02-14T21:18:01.971Z,19.10
2019-02-14T21:20:42.284Z,19.15
2019-02-14T21:23:10.522Z,18.60
2019-02-14T21:25:38.848Z,19.70
2019-02-14T21:28:08.162Z,17.55
2019-02-14T21:30:52.459Z,18.98
2019-02-14T21:33:20.766Z,18.12
2019-02-14T21:35:49.149Z,17.73
2019-02-14T21:38:17.578Z,19.15
2019-02-14T21:40:59.289Z,18.92
2019-02-14T21:43:46.902Z,18.77
2019-02-14T21:46:27.171Z,18.62
2019-02-14T21:49:15.770Z,18.45
2019-02-14T21:52:00.388Z,18.90
2019-02-14T21:54:48.013Z,18.82
2019-02-14T21:57:35.489Z,18.95
2019-02-14T22:00:19.459Z,18.30
2019-02-14T22:03:07.239Z,18.40
2019-02-14T22:05:47.977Z,19.57
2019-02-14T22:08:36.725Z,19.77
2019-02-14T22:11:17.520Z,18.98
2019-02-14T22:13:45.540Z,20.05
2019-02-14T22:16:29.500Z,19.37
2019-02-14T22:19:17.197Z,19.40
2019-02-14T22:21:58.799Z,17.50
2019-02-14T22:24:46.369Z,19.98
2019-02-14T22:27:28.524Z,13.75
2019-02-14T22:30:16.394Z,17.62
2019-02-14T22:32:57.406Z,17.87
2019-02-14T22:35:44.942Z,19.32
2019-02-14T22:38:12.885Z,18.50
2019-02-14T22:41:00.342Z,20.70
2019-02-14T22:43:41.313Z,18.23
2019-02-14T22:46:31.742Z,18.00
2019-02-14T22:49:12.427Z,18.27
2019-02-14T22:51:52.617Z,19.25
2019-02-14T22:54:40.072Z,17.75
2019-02-14T22:57:21.999Z,19.62
2019-02-14T22:59:50.949Z,18.48
2019-02-14T23:02:32.432Z,19.15
2019-02-14T23:05:01.475Z,19.77
2019-02-14T23:07:29.488Z,19.90
2019-02-14T23:09:57.463Z,19.57
2019-02-14T23:12:25.518Z,18.40
2019-02-14T23:15:06.752Z,18.15
2019-02-14T23:17:48.006Z,19.25
2019-02-14T23:20:35.773Z,19.25
2019-02-14T23:23:17.216Z,18.07
2019-02-14T23:26:06.059Z,22.85
2019-02-14T23:28:46.878Z,19.50
2019-02-14T23:31:34.685Z,19.10
2019-02-14T23:34:16.682Z,20.15
2019-02-14T23:36:44.714Z,19.23
2019-02-14T23:39:12.632Z,18.92
2019-02-14T23:42:00.058Z,18.92
2019-02-14T23:44:28.039Z,18.85
2019-02-14T23:47:15.524Z,19.10
2019-02-14T23:49:57.145Z,17.45
2019-02-14T23:52:25.233Z,19.42
2019-02-14T23:54:53.161Z,17.50
2019-02-14T23:57:34.887Z,17.62
